createdAt,value
2022-10-20T05:00:15.149Z,94.30
2022-10-20T05:05:18.847Z,94.90
2022-10-20T05:10:22.391Z,95.20
2022-10-20T05:15:27.325Z,95.30
2022-10-20T05:20:36.783Z,95.10
2022-10-20T05:25:44.929Z,95.20
2022-10-20T05:30:49.816Z,94.90
2022-10-20T05:35:53.447Z,94.50
2022-10-20T05:40:57.004Z,94.40
2022-10-20T05:46:01.893Z,94.60
2022-10-20T05:51:13.558Z,95.20
2022-10-20T05:56:20.316Z,95.30
2022-10-20T06:01:26.458Z,95.00
2022-10-20T06:06:31.607Z,94.70
2022-10-20T06:11:39.204Z,94.50
2022-10-20T06:16:44.713Z,94.20
2022-10-20T06:21:49.466Z,94.40
2022-10-20T06:26:53.401Z,94.40
2022-10-20T06:31:58.275Z,94.80
2022-10-20T06:37:02.041Z,95.00
2022-10-20T06:42:09.641Z,94.80
2022-10-20T06:47:22.628Z,94.70
2022-10-20T06:52:26.150Z,94.90
2022-10-20T06:57:32.275Z,95.00
2022-10-20T07:02:39.862Z,95.20
2022-10-20T07:07:43.438Z,95.40
2022-10-20T07:12:46.954Z,95.20
2022-10-20T07:17:51.833Z,95.40
2022-10-20T07:22:55.628Z,95.30
2022-10-20T07:27:59.131Z,95.30
2022-10-20T07:33:03.977Z,95.20
2022-10-20T07:38:07.487Z,95.50
2022-10-20T07:43:11.036Z,95.20
2022-10-20T07:48:15.891Z,95.20
2022-10-20T07:53:19.520Z,94.90
2022-10-20T07:58:23.149Z,94.80
2022-10-20T08:03:28.144Z,94.80
2022-10-20T08:08:32.196Z,94.90
2022-10-20T08:13:35.873Z,94.90
2022-10-20T08:24:02.590Z,95.20
2022-10-20T08:29:06.585Z,94.90
2022-10-20T08:34:11.530Z,94.90
2022-10-20T08:39:15.076Z,94.70
2022-10-20T08:44:23.105Z,94.90
2022-10-20T08:49:30.840Z,94.90
2022-10-20T08:54:35.705Z,94.50
2022-10-20T08:59:40.000Z,94.10
2022-10-20T09:04:50.511Z,93.90
2022-10-20T09:09:59.016Z,93.10
2022-10-20T09:15:02.705Z,92.60
2022-10-20T09:20:17.121Z,91.90
2022-10-20T09:25:24.003Z,91.60
2022-10-20T09:30:35.442Z,90.50
2022-10-20T09:35:41.628Z,90.00
2022-10-20T09:40:46.698Z,88.80
2022-10-20T09:45:54.108Z,86.70
2022-10-20T09:51:00.434Z,85.40
2022-10-20T09:56:04.333Z,84.00
2022-10-20T10:01:14.248Z,82.00
2022-10-20T10:06:28.572Z,81.50
2022-10-20T10:11:35.389Z,79.10
2022-10-20T10:16:43.714Z,76.90
2022-10-20T10:21:53.499Z,75.80
2022-10-20T10:26:57.966Z,74.70
2022-10-20T10:32:03.350Z,74.10
2022-10-20T10:37:14.002Z,73.60
2022-10-20T10:42:35.281Z,72.50
2022-10-20T10:48:16.390Z,72.20
2022-10-20T10:53:38.174Z,72.30
2022-10-20T10:58:47.560Z,72.50
2022-10-20T11:04:09.154Z,72.60
2022-10-20T11:09:31.694Z,72.20
2022-10-20T11:14:44.822Z,71.40
2022-10-20T11:20:04.608Z,71.40
2022-10-20T11:25:21.949Z,69.80
2022-10-20T11:30:27.527Z,68.00
2022-10-20T11:35:39.674Z,67.60
2022-10-20T11:40:49.732Z,67.10
2022-10-20T11:45:56.779Z,66.70
2022-10-20T11:51:16.784Z,66.10
2022-10-20T11:56:53.620Z,66.60
2022-10-20T12:02:44.078Z,67.30
2022-10-20T12:08:28.903Z,69.60
2022-10-20T12:13:41.993Z,70.20
2022-10-20T12:19:08.242Z,70.10
2022-10-20T12:24:33.863Z,70.30
2022-10-20T12:30:07.211Z,70.90
2022-10-20T12:35:53.916Z,70.60
2022-10-20T12:41:02.141Z,70.50
2022-10-20T12:46:12.818Z,69.50
2022-10-20T12:51:25.889Z,68.80
2022-10-20T12:56:36.298Z,68.90
2022-10-20T13:02:14.648Z,69.30
2022-10-20T13:08:18.148Z,69.20
2022-10-20T13:13:58.827Z,69.40
2022-10-20T13:19:08.863Z,69.50
2022-10-20T13:24:17.430Z,69.80
2022-10-20T13:29:26.511Z,70.40
2022-10-20T13:34:36.401Z,69.70
2022-10-20T13:39:50.018Z,67.90
2022-10-20T13:45:03.926Z,66.20
2022-10-20T13:50:12.047Z,64.70
2022-10-20T13:55:22.134Z,63.90
2022-10-20T14:00:28.694Z,63.40
2022-10-20T14:05:38.568Z,62.90
2022-10-20T14:10:50.065Z,62.70
2022-10-20T14:15:56.322Z,62.30
2022-10-20T14:21:02.974Z,62.60
2022-10-20T14:26:12.824Z,62.90
2022-10-20T14:31:17.095Z,64.40
2022-10-20T14:36:22.003Z,65.10
2022-10-20T14:41:27.454Z,65.90
2022-10-20T14:46:34.285Z,66.80
2022-10-20T14:51:40.837Z,67.90
2022-10-20T14:56:47.725Z,68.30
2022-10-20T15:02:08.253Z,68.50
2022-10-20T15:07:15.992Z,68.40
2022-10-20T15:12:27.972Z,68.70
2022-10-20T15:17:33.397Z,68.60
2022-10-20T15:22:37.269Z,68.70
2022-10-20T15:27:42.646Z,68.60
2022-10-20T15:32:46.211Z,68.60
2022-10-20T15:37:51.542Z,68.60
2022-10-20T15:42:56.466Z,68.70
2022-10-20T15:48:00.041Z,68.80
2022-10-20T15:53:03.672Z,68.80
2022-10-20T15:58:08.578Z,69.00
2022-10-20T16:03:16.582Z,69.10
2022-10-20T16:08:20.337Z,69.30
2022-10-20T16:13:25.365Z,69.20
2022-10-20T16:18:29.125Z,69.20
2022-10-20T16:23:33.094Z,69.30
2022-10-20T16:28:38.384Z,69.50
2022-10-20T16:33:42.660Z,69.50
2022-10-20T16:38:46.223Z,69.70
2022-10-20T16:43:51.147Z,69.80
2022-10-20T16:48:57.180Z,70.00
2022-10-20T16:54:03.266Z,70.20
2022-10-20T16:59:08.779Z,70.30
2022-10-20T17:04:13.439Z,70.50
2022-10-20T17:09:16.991Z,70.80
2022-10-20T17:14:22.114Z,71.60
2022-10-20T17:19:25.719Z,71.50
2022-10-20T17:24:29.338Z,71.70
2022-10-20T17:29:34.359Z,72.10
2022-10-20T17:34:37.952Z,72.50
2022-10-20T17:39:41.535Z,73.00
2022-10-20T17:44:46.718Z,73.50
2022-10-20T17:49:50.309Z,73.90
2022-10-20T17:54:53.904Z,74.40
2022-10-20T18:00:00.443Z,74.90
2022-10-20T18:05:09.160Z,75.30
2022-10-20T18:10:13.185Z,75.50
2022-10-20T18:15:18.348Z,75.80
2022-10-20T18:20:22.186Z,76.10
2022-10-20T18:25:25.818Z,76.50
2022-10-20T18:30:30.816Z,76.90
2022-10-20T18:35:37.670Z,77.20
2022-10-20T18:40:41.251Z,77.30
2022-10-20T18:45:53.667Z,77.50
2022-10-20T18:50:58.549Z,78.10
2022-10-20T18:56:03.516Z,78.30
2022-10-20T19:01:11.088Z,78.70
2022-10-20T19:06:17.525Z,79.10
2022-10-20T19:11:22.951Z,79.40
2022-10-20T19:16:29.795Z,79.60
2022-10-20T19:21:34.136Z,79.60
2022-10-20T19:26:40.674Z,79.60
2022-10-20T19:31:47.882Z,79.90
2022-10-20T19:36:51.542Z,80.20
2022-10-20T19:41:55.889Z,80.40
2022-10-20T19:47:01.159Z,80.60
2022-10-20T19:52:05.322Z,80.70
2022-10-20T19:57:08.917Z,80.80
2022-10-20T20:02:15.347Z,80.80
2022-10-20T20:07:19.032Z,80.90
2022-10-20T20:12:22.634Z,80.90
2022-10-20T20:17:27.596Z,81.00
2022-10-20T20:22:31.154Z,80.80
2022-10-20T20:27:34.984Z,80.50
2022-10-20T20:32:42.828Z,80.50
2022-10-20T20:37:50.398Z,80.60
2022-10-20T20:42:54.239Z,80.70
2022-10-20T20:47:59.167Z,80.90
2022-10-20T20:53:02.733Z,81.10
2022-10-20T20:58:06.302Z,81.20
2022-10-20T21:03:11.210Z,81.10
2022-10-20T21:08:15.296Z,81.40
2022-10-20T21:13:19.037Z,81.40
2022-10-20T21:18:24.196Z,81.60
2022-10-20T21:23:27.763Z,81.70
2022-10-20T21:28:31.565Z,81.70
2022-10-20T21:33:37.156Z,81.50
2022-10-20T21:38:42.535Z,81.40
2022-10-20T21:43:48.254Z,81.60
2022-10-20T21:48:55.443Z,81.60
2022-10-20T21:54:00.516Z,81.60
2022-10-20T21:59:04.733Z,81.80
2022-10-20T22:04:09.709Z,82.00
2022-10-20T22:09:14.919Z,82.20
2022-10-20T22:14:18.665Z,82.30
2022-10-20T22:19:25.274Z,82.10
2022-10-20T22:24:30.587Z,82.00
2022-10-20T22:29:34.200Z,82.20
